^^
Grace C. Lehan Memorial Weather Station Historical Data
Daily Summary for April 7, 2022 Units:  Both    English   Metric
Daily Weekly Monthly Yearly
  High: Low: Average:
Temperature: 33.5 °F /  0.8 °C 22.9 °F /  -5.1 °C 29 °F /  -1.7 °C
Dew Point: 27.6 °F /  -2.4 °C 12.8 °F /  -10.7 °C 22.6 °F /  -5.2 °C
Humidity: 94% 61% 77%
Wind Speed: 13mph /  20.9km/h - 4mph /  6.4km/h
Wind Gust: 25mph /  40.2km/h - -
Wind- - West
Pressure: 30.11 in /  1019.5 hPa 29.69 in /  1005.3 hPa -
Precipitation: 0.01 in /  0.25 mm    
 
 
Tabular Data for April 7, 2022
Time Temperature Dew Point Pressure Wind Wind Speed Wind Gust Humidity Rainfall Rate (Hourly) solar
00:04 32.5 °F /  0.3 °C 23.8 °F /  -4.6 °C 29.88in /  1011.7hPa NW 1.6mph /  2.6km/h 5mph /  8km/h 70% 0.00in /  0mm 0 W/m2
00:09 32.4 °F /  0.2 °C 23.7 °F /  -4.6 °C 29.87in /  1011.4hPa NW 1.1mph /  1.8km/h 5mph /  8km/h 70% 0.00in /  0mm 0 W/m2
00:14 32.4 °F /  0.2 °C 23.6 °F /  -4.7 °C 29.87in /  1011.4hPa NW 1.1mph /  1.8km/h 6mph /  9.7km/h 69.7% 0.00in /  0mm 0 W/m2
00:19 32.4 °F /  0.2 °C 23.8 °F /  -4.6 °C 29.88in /  1011.7hPa NW 0.5mph /  0.8km/h 6mph /  9.7km/h 70.2% 0.00in /  0mm 0 W/m2
00:24 32.4 °F /  0.2 °C 24 °F /  -4.4 °C 29.88in /  1011.7hPa NW 0.8mph /  1.3km/h 6mph /  9.7km/h 70.8% 0.00in /  0mm 0 W/m2
00:29 32.3 °F /  0.2 °C 23.6 °F /  -4.7 °C 29.88in /  1011.7hPa NW 0.3mph /  0.5km/h 6mph /  9.7km/h 70% 0.00in /  0mm 0 W/m2
00:34 32.3 °F /  0.2 °C 23.6 °F /  -4.7 °C 29.88in /  1011.7hPa Calm   6mph /  9.7km/h 70% 0.00in /  0mm 0 W/m2
00:39 32.3 °F /  0.2 °C 23.6 °F /  -4.7 °C 29.89in /  1012.1hPa NW 0.3mph /  0.5km/h 3mph /  4.8km/h 70% 0.00in /  0mm 0 W/m2
00:44 32.2 °F /  0.1 °C 23.7 °F /  -4.6 °C 29.89in /  1012.1hPa Calm   3mph /  4.8km/h 70.4% 0.00in /  0mm 0 W/m2
00:49 32.2 °F /  0.1 °C 23.5 °F /  -4.7 °C 29.88in /  1011.7hPa NW 0.2mph /  0.3km/h 3mph /  4.8km/h 70% 0.00in /  0mm 0 W/m2
00:54 32.2 °F /  0.1 °C 23.8 °F /  -4.6 °C 29.88in /  1011.7hPa Calm   3mph /  4.8km/h 70.7% 0.00in /  0mm 0 W/m2
00:59 32.2 °F /  0.1 °C 23.5 °F /  -4.7 °C 29.89in /  1012.1hPa Calm   3mph /  4.8km/h 70% 0.00in /  0mm 0 W/m2
01:04 32.2 °F /  0.1 °C 23.5 °F /  -4.7 °C 29.88in /  1011.7hPa Calm   3mph /  4.8km/h 70% 0.00in /  0mm 0 W/m2
01:09 32.2 °F /  0.1 °C 23.7 °F /  -4.6 °C 29.89in /  1012.1hPa Calm     70.6% 0.00in /  0mm 0 W/m2
01:14 32.2 °F /  0.1 °C 23.8 °F /  -4.6 °C 29.89in /  1012.1hPa NW 1.7mph /  2.7km/h 4mph /  6.4km/h 70.8% 0.00in /  0mm 0 W/m2
01:19 32.1 °F /  0.1 °C 23.5 °F /  -4.7 °C 29.89in /  1012.1hPa Calm   4mph /  6.4km/h 70.1% 0.00in /  0mm 0 W/m2
01:24 32.1 °F /  0.1 °C 23.8 °F /  -4.6 °C 29.88in /  1011.7hPa NW 0.8mph /  1.3km/h 4mph /  6.4km/h 71.2% 0.00in /  0mm 0 W/m2
01:29 32 °F /  0 °C 24.4 °F /  -4.2 °C 29.88in /  1011.7hPa NNW 1.2mph /  1.9km/h 5mph /  8km/h 73.2% 0.00in /  0mm 0 W/m2
01:34 31.9 °F /  -0.1 °C 24.3 °F /  -4.3 °C 29.88in /  1011.7hPa NNE 1.7mph /  2.7km/h 5mph /  8km/h 73.4% 0.00in /  0mm 0 W/m2
01:39 31.7 °F /  -0.2 °C 24.7 °F /  -4.1 °C 29.87in /  1011.4hPa NNE 1.9mph /  3.1km/h 5mph /  8km/h 75.1% 0.00in /  0mm 0 W/m2
01:44 31.5 °F /  -0.3 °C 25.1 °F /  -3.8 °C 29.85in /  1010.7hPa North 2.4mph /  3.9km/h 7mph /  11.3km/h 76.9% 0.00in /  0mm 0 W/m2
01:49 31.2 °F /  -0.4 °C 25.2 °F /  -3.8 °C 29.85in /  1010.7hPa NE 2.6mph /  4.2km/h 10mph /  16.1km/h 78.3% 0.00in /  0mm 0 W/m2
01:54 30.7 °F /  -0.7 °C 25.3 °F /  -3.7 °C 29.85in /  1010.7hPa NE 1.4mph /  2.3km/h 10mph /  16.1km/h 80% 0.00in /  0mm 0 W/m2
01:59 30.5 °F /  -0.8 °C 25.5 °F /  -3.6 °C 29.85in /  1010.7hPa NE 1.5mph /  2.4km/h 10mph /  16.1km/h 81.4% 0.00in /  0mm 0 W/m2
02:04 30.2 °F /  -1 °C 25.5 °F /  -3.6 °C 29.84in /  1010.4hPa ENE 0.8mph /  1.3km/h 10mph /  16.1km/h 82.5% 0.00in /  0mm 0 W/m2
02:09 30 °F /  -1.1 °C 25.7 °F /  -3.5 °C 29.84in /  1010.4hPa NE 1.8mph /  2.9km/h 7mph /  11.3km/h 83.7% 0.00in /  0mm 0 W/m2
02:14 29.8 °F /  -1.2 °C 25.7 °F /  -3.5 °C 29.83in /  1010hPa NE 0.1mph /  0.2km/h 7mph /  11.3km/h 84.3% 0.00in /  0mm 0 W/m2
02:19 29.7 °F /  -1.3 °C 25.9 °F /  -3.4 °C 29.83in /  1010hPa NE 0.5mph /  0.8km/h 7mph /  11.3km/h 85.5% 0.00in /  0mm 0 W/m2
02:24 29.6 °F /  -1.3 °C 26 °F /  -3.3 °C 29.83in /  1010hPa NE 1.3mph /  2.1km/h 7mph /  11.3km/h 86.1% 0.00in /  0mm 0 W/m2
02:29 29.5 °F /  -1.4 °C 26.1 °F /  -3.3 °C 29.83in /  1010hPa NE 1.8mph /  2.9km/h 7mph /  11.3km/h 87% 0.00in /  0mm 0 W/m2
02:34 29.4 °F /  -1.4 °C 26.1 °F /  -3.3 °C 29.82in /  1009.7hPa NE 2.1mph /  3.4km/h 7mph /  11.3km/h 87.4% 0.00in /  0mm 0 W/m2
02:39 29.3 °F /  -1.5 °C 26.2 °F /  -3.2 °C 29.82in /  1009.7hPa NE 1.3mph /  2.1km/h 6mph /  9.7km/h 88% 0.00in /  0mm 0 W/m2
02:44 29.2 °F /  -1.6 °C 26.1 °F /  -3.3 °C 29.82in /  1009.7hPa NE 1.6mph /  2.6km/h 6mph /  9.7km/h 88% 0.00in /  0mm 0 W/m2
02:49 29 °F /  -1.7 °C 26.2 °F /  -3.2 °C 29.81in /  1009.4hPa NE 2.2mph /  3.5km/h 7mph /  11.3km/h 88.9% 0.00in /  0mm 0 W/m2
02:54 28.9 °F /  -1.7 °C 26.1 °F /  -3.3 °C 29.81in /  1009.4hPa NE 2.3mph /  3.7km/h 7mph /  11.3km/h 89% 0.00in /  0mm 0 W/m2
02:59 28.8 °F /  -1.8 °C 26.1 °F /  -3.3 °C 29.81in /  1009.4hPa NE 0.9mph /  1.4km/h 7mph /  11.3km/h 89.6% 0.00in /  0mm 0 W/m2
03:04 28.8 °F /  -1.8 °C 26.2 °F /  -3.2 °C 29.80in /  1009hPa NNE 1.8mph /  2.9km/h 7mph /  11.3km/h 90% 0.00in /  0mm 0 W/m2
03:09 28.7 °F /  -1.8 °C 26.1 °F /  -3.3 °C 29.80in /  1009hPa NE 1.3mph /  2.1km/h 7mph /  11.3km/h 90% 0.00in /  0mm 0 W/m2
03:14 28.7 °F /  -1.8 °C 26.1 °F /  -3.3 °C 29.79in /  1008.7hPa NE 2mph /  3.2km/h 7mph /  11.3km/h 90% 0.00in /  0mm 0 W/m2
03:19 28.6 °F /  -1.9 °C 26.2 °F /  -3.2 °C 29.79in /  1008.7hPa NE 0.7mph /  1.1km/h 10mph /  16.1km/h 90.6% 0.00in /  0mm 0 W/m2
03:24 28.6 °F /  -1.9 °C 26.3 °F /  -3.2 °C 29.78in /  1008.4hPa NE 0.2mph /  0.3km/h 10mph /  16.1km/h 91% 0.00in /  0mm 0 W/m2
03:29 28.6 °F /  -1.9 °C 26.3 °F /  -3.2 °C 29.78in /  1008.4hPa NNE 0.6mph /  1km/h 10mph /  16.1km/h 91% 0.00in /  0mm 0 W/m2
03:34 28.6 °F /  -1.9 °C 26.3 °F /  -3.2 °C 29.78in /  1008.4hPa NE 1.5mph /  2.4km/h 10mph /  16.1km/h 91% 0.00in /  0mm 0 W/m2
03:39 28.5 °F /  -1.9 °C 26.2 °F /  -3.2 °C 29.78in /  1008.4hPa NE 2.8mph /  4.5km/h 7mph /  11.3km/h 91% 0.00in /  0mm 0 W/m2
03:44 28.5 °F /  -1.9 °C 26.2 °F /  -3.2 °C 29.77in /  1008hPa NE 1mph /  1.6km/h 7mph /  11.3km/h 91% 0.00in /  0mm 0 W/m2
03:49 28.4 °F /  -2 °C 26.3 °F /  -3.2 °C 29.76in /  1007.7hPa NE 1.8mph /  2.9km/h 7mph /  11.3km/h 91.9% 0.00in /  0mm 0 W/m2
03:54 28.4 °F /  -2 °C 26.3 °F /  -3.2 °C 29.76in /  1007.7hPa NE 0.5mph /  0.8km/h 7mph /  11.3km/h 92% 0.00in /  0mm 0 W/m2
03:59 28.3 °F /  -2.1 °C 26.3 °F /  -3.2 °C 29.76in /  1007.7hPa NE 1.5mph /  2.4km/h 7mph /  11.3km/h 92% 0.00in /  0mm 0 W/m2
04:00 28.3 °F /  -2.1 °C 26.3 °F /  -3.2 °C 29.75in /  1007.3hPa NE 2mph /  3.2km/h 7mph /  11.3km/h 92% 0.00in /  0mm 0 W/m2
04:09 28.2 °F /  -2.1 °C 26.1 °F /  -3.3 °C 29.74in /  1007hPa NE 2mph /  3.2km/h 6mph /  9.7km/h 92% 0.00in /  0mm 0 W/m2
04:14 28.1 °F /  -2.2 °C 26.1 °F /  -3.3 °C 29.74in /  1007hPa NE 0.2mph /  0.3km/h 6mph /  9.7km/h 92% 0.00in /  0mm 0 W/m2
04:19 28.1 °F /  -2.2 °C 26.1 °F /  -3.3 °C 29.73in /  1006.7hPa NE 1.7mph /  2.7km/h 6mph /  9.7km/h 92% 0.00in /  0mm 0 W/m2
04:24 28.1 °F /  -2.2 °C 26 °F /  -3.3 °C 29.73in /  1006.7hPa NE 1mph /  1.6km/h 6mph /  9.7km/h 92% 0.00in /  0mm 0 W/m2
04:29 28 °F /  -2.2 °C 26 °F /  -3.3 °C 29.73in /  1006.7hPa NE 1.5mph /  2.4km/h 6mph /  9.7km/h 92% 0.00in /  0mm 0 W/m2
04:34 28 °F /  -2.2 °C 26 °F /  -3.3 °C 29.72in /  1006.3hPa NE 1.6mph /  2.6km/h 6mph /  9.7km/h 92% 0.00in /  0mm 0 W/m2
04:39 27.9 °F /  -2.3 °C 25.9 °F /  -3.4 °C 29.72in /  1006.3hPa NE 2.1mph /  3.4km/h 6mph /  9.7km/h 92% 0.00in /  0mm 0 W/m2
04:44 27.9 °F /  -2.3 °C 26.1 °F /  -3.3 °C 29.72in /  1006.3hPa NE 1mph /  1.6km/h 6mph /  9.7km/h 92.7% 0.00in /  0mm 0 W/m2
04:49 27.9 °F /  -2.3 °C 26.1 °F /  -3.3 °C 29.72in /  1006.3hPa NE 0.6mph /  1km/h 6mph /  9.7km/h 93% 0.00in /  0mm 0 W/m2
04:54 27.9 °F /  -2.3 °C 26.1 °F /  -3.3 °C 29.72in /  1006.3hPa Calm   6mph /  9.7km/h 93% 0.00in /  0mm 0 W/m2
04:59 27.9 °F /  -2.3 °C 26.1 °F /  -3.3 °C 29.72in /  1006.3hPa Calm   6mph /  9.7km/h 93% 0.00in /  0mm 0 W/m2
05:04 27.9 °F /  -2.3 °C 26.1 °F /  -3.3 °C 29.72in /  1006.3hPa NE 0.1mph /  0.2km/h 6mph /  9.7km/h 93% 0.00in /  0mm 0 W/m2
05:09 27.9 °F /  -2.3 °C 26.2 °F /  -3.2 °C 29.71in /  1006hPa Calm   2mph /  3.2km/h 93% 0.00in /  0mm 0 W/m2
05:14 28 °F /  -2.2 °C 26.2 °F /  -3.2 °C 29.71in /  1006hPa NE 0.5mph /  0.8km/h 3mph /  4.8km/h 93% 0.00in /  0mm 0 W/m2
05:19 27.9 °F /  -2.3 °C 26.2 °F /  -3.2 °C 29.71in /  1006hPa NNE 0.5mph /  0.8km/h 3mph /  4.8km/h 93% 0.00in /  0mm 0 W/m2
05:24 27.9 °F /  -2.3 °C 26.1 °F /  -3.3 °C 29.72in /  1006.3hPa North 0.1mph /  0.2km/h 3mph /  4.8km/h 93% 0.00in /  0mm 0 W/m2
05:29 27.9 °F /  -2.3 °C 26.1 °F /  -3.3 °C 29.72in /  1006.3hPa North 0.1mph /  0.2km/h 3mph /  4.8km/h 93% 0.00in /  0mm 0 W/m2
05:34 27.9 °F /  -2.3 °C 26.1 °F /  -3.3 °C 29.72in /  1006.3hPa North 0.1mph /  0.2km/h 3mph /  4.8km/h 93% 0.00in /  0mm 0 W/m2
05:39 27.9 °F /  -2.3 °C 26.1 °F /  -3.3 °C 29.72in /  1006.3hPa Calm   2mph /  3.2km/h 93% 0.00in /  0mm 0 W/m2
05:44 27.9 °F /  -2.3 °C 26.1 °F /  -3.3 °C 29.73in /  1006.7hPa Calm   2mph /  3.2km/h 93% 0.00in /  0mm 0 W/m2
05:49 27.9 °F /  -2.3 °C 26.1 °F /  -3.3 °C 29.73in /  1006.7hPa NNW 0.5mph /  0.8km/h 4mph /  6.4km/h 93% 0.00in /  0mm 0 W/m2
05:54 27.9 °F /  -2.3 °C 26.1 °F /  -3.3 °C 29.73in /  1006.7hPa Calm   4mph /  6.4km/h 93% 0.00in /  0mm 0 W/m2
05:59 27.9 °F /  -2.3 °C 26.1 °F /  -3.3 °C 29.73in /  1006.7hPa NNW 0.2mph /  0.3km/h 4mph /  6.4km/h 93% 0.00in /  0mm 0 W/m2
06:04 27.9 °F /  -2.3 °C 26.1 °F /  -3.3 °C 29.73in /  1006.7hPa NNW 0.5mph /  0.8km/h 4mph /  6.4km/h 93% 0.00in /  0mm 0 W/m2
06:09 27.8 °F /  -2.3 °C 26.1 °F /  -3.3 °C 29.73in /  1006.7hPa NNW 1.1mph /  1.8km/h 4mph /  6.4km/h 93% 0.00in /  0mm 0 W/m2
06:14 27.8 °F /  -2.3 °C 26 °F /  -3.3 °C 29.72in /  1006.3hPa NNW 1.9mph /  3.1km/h 6mph /  9.7km/h 93% 0.00in /  0mm 0 W/m2
06:19 27.8 °F /  -2.3 °C 26 °F /  -3.3 °C 29.72in /  1006.3hPa NNW 0.7mph /  1.1km/h 6mph /  9.7km/h 93% 0.00in /  0mm 0 W/m2
06:24 27.8 °F /  -2.3 °C 26 °F /  -3.3 °C 29.72in /  1006.3hPa NW 1.2mph /  1.9km/h 6mph /  9.7km/h 93% 0.00in /  0mm 0 W/m2
06:29 27.8 °F /  -2.3 °C 26 °F /  -3.3 °C 29.72in /  1006.3hPa NW 1.9mph /  3.1km/h 7mph /  11.3km/h 93% 0.00in /  0mm 0 W/m2
06:34 27.8 °F /  -2.3 °C 26 °F /  -3.3 °C 29.72in /  1006.3hPa NNW 0.9mph /  1.4km/h 7mph /  11.3km/h 93% 0.00in /  0mm 0 W/m2
06:39 27.8 °F /  -2.3 °C 26 °F /  -3.3 °C 29.72in /  1006.3hPa NNW 1mph /  1.6km/h 6mph /  9.7km/h 93% 0.00in /  0mm 0 W/m2
06:44 27.8 °F /  -2.3 °C 26 °F /  -3.3 °C 29.72in /  1006.3hPa NNW 2.6mph /  4.2km/h 6mph /  9.7km/h 93% 0.00in /  0mm 0 W/m2
06:49 27.8 °F /  -2.3 °C 26 °F /  -3.3 °C 29.72in /  1006.3hPa NW 1mph /  1.6km/h 6mph /  9.7km/h 93% 0.00in /  0mm 0 W/m2
06:54 27.8 °F /  -2.3 °C 26 °F /  -3.3 °C 29.72in /  1006.3hPa NW 1.6mph /  2.6km/h 6mph /  9.7km/h 93% 0.00in /  0mm 0 W/m2
06:59 27.8 °F /  -2.3 °C 26.1 °F /  -3.3 °C 29.72in /  1006.3hPa Calm   6mph /  9.7km/h 93.3% 0.00in /  0mm 0 W/m2
07:04 27.8 °F /  -2.3 °C 26.3 °F /  -3.2 °C 29.72in /  1006.3hPa NW 0.5mph /  0.8km/h 6mph /  9.7km/h 94% 0.00in /  0mm 0 W/m2
07:09 27.8 °F /  -2.3 °C 26.3 °F /  -3.2 °C 29.72in /  1006.3hPa NW 1.4mph /  2.3km/h 5mph /  8km/h 94% 0.00in /  0mm 0 W/m2
07:14 27.8 °F /  -2.3 °C 26.3 °F /  -3.2 °C 29.71in /  1006hPa NW 1.3mph /  2.1km/h 5mph /  8km/h 94% 0.00in /  0mm 0 W/m2
07:19 27.8 °F /  -2.3 °C 26.3 °F /  -3.2 °C 29.71in /  1006hPa NW 1.7mph /  2.7km/h 6mph /  9.7km/h 94% 0.00in /  0mm 0 W/m2
07:24 27.8 °F /  -2.3 °C 26.3 °F /  -3.2 °C 29.71in /  1006hPa NW 1mph /  1.6km/h 6mph /  9.7km/h 94% 0.00in /  0mm 0 W/m2
07:29 27.8 °F /  -2.3 °C 26.3 °F /  -3.2 °C 29.71in /  1006hPa NW 1.2mph /  1.9km/h 6mph /  9.7km/h 94% 0.00in /  0mm 0 W/m2
07:34 27.8 °F /  -2.3 °C 26.3 °F /  -3.2 °C 29.72in /  1006.3hPa NW 1.7mph /  2.7km/h 6mph /  9.7km/h 94% 0.00in /  0mm 0 W/m2
07:39 27.8 °F /  -2.3 °C 26.3 °F /  -3.2 °C 29.71in /  1006hPa NW 1.8mph /  2.9km/h 6mph /  9.7km/h 94% 0.00in /  0mm 0 W/m2
07:44 27.8 °F /  -2.3 °C 26.3 °F /  -3.2 °C 29.71in /  1006hPa NW 1.2mph /  1.9km/h 9mph /  14.5km/h 94% 0.00in /  0mm 0 W/m2
07:49 27.8 °F /  -2.3 °C 26.3 °F /  -3.2 °C 29.71in /  1006hPa NW 0.2mph /  0.3km/h 9mph /  14.5km/h 94% 0.00in /  0mm 0 W/m2
07:54 27.9 °F /  -2.3 °C 26.4 °F /  -3.1 °C 29.70in /  1005.6hPa NW 0.4mph /  0.6km/h 9mph /  14.5km/h 94% 0.00in /  0mm 0 W/m2
07:59 27.9 °F /  -2.3 °C 26.4 °F /  -3.1 °C 29.70in /  1005.6hPa NW 1.7mph /  2.7km/h 9mph /  14.5km/h 94% 0.00in /  0mm 0 W/m2
08:00 27.9 °F /  -2.3 °C 26.4 °F /  -3.1 °C 29.70in /  1005.6hPa Calm   9mph /  14.5km/h 94% 0.00in /  0mm 0 W/m2
08:09 28 °F /  -2.2 °C 26.5 °F /  -3.1 °C 29.71in /  1006hPa NW 1.1mph /  1.8km/h 5mph /  8km/h 94% 0.00in /  0mm 0 W/m2
08:14 28 °F /  -2.2 °C 26.5 °F /  -3.1 °C 29.71in /  1006hPa NW 0.8mph /  1.3km/h 5mph /  8km/h 94% 0.00in /  0mm 0 W/m2
08:19 28 °F /  -2.2 °C 26.5 °F /  -3.1 °C 29.72in /  1006.3hPa NW 0.8mph /  1.3km/h 5mph /  8km/h 94% 0.00in /  0mm 0 W/m2
08:24 28.1 °F /  -2.2 °C 26.6 °F /  -3 °C 29.72in /  1006.3hPa NW 0.4mph /  0.6km/h 5mph /  8km/h 94% 0.00in /  0mm 0 W/m2
08:29 28.1 °F /  -2.2 °C 26.6 °F /  -3 °C 29.71in /  1006hPa NW 0.1mph /  0.2km/h 5mph /  8km/h 94% 0.00in /  0mm 0 W/m2
08:34 28.2 °F /  -2.1 °C 26.7 °F /  -2.9 °C 29.72in /  1006.3hPa NW 1.3mph /  2.1km/h 5mph /  8km/h 94% 0.00in /  0mm 0 W/m2
08:39 28.3 °F /  -2.1 °C 26.8 °F /  -2.9 °C 29.72in /  1006.3hPa NW 0.6mph /  1km/h 5mph /  8km/h 94% 0.00in /  0mm 0 W/m2
08:44 28.3 °F /  -2.1 °C 26.8 °F /  -2.9 °C 29.72in /  1006.3hPa NW 1.1mph /  1.8km/h 5mph /  8km/h 94% 0.00in /  0mm 5 W/m2
08:45 28.3 °F /  -2.1 °C 26.8 °F /  -2.9 °C 29.72in /  1006.3hPa NW 1.2mph /  1.9km/h 5mph /  8km/h 94% 0.00in /  0mm 5 W/m2
09:00 28.5 °F /  -1.9 °C 27 °F /  -2.8 °C 29.71in /  1006hPa NW 1mph /  1.6km/h 10mph /  16.1km/h 94% 0.00in /  0mm 3 W/m2
09:30 28.8 °F /  -1.8 °C 27 °F /  -2.8 °C 29.71in /  1006hPa WNW 1mph /  1.6km/h 7mph /  11.3km/h 93% 0.00in /  0mm 8 W/m2
10:00 29.4 °F /  -1.4 °C 27.6 °F /  -2.4 °C 29.71in /  1006hPa WNW 2mph /  3.2km/h 9mph /  14.5km/h 93% 0.00in /  0mm 14 W/m2
10:30 30.2 °F /  -1 °C 27.6 °F /  -2.4 °C 29.71in /  1006hPa NW 2mph /  3.2km/h 12mph /  19.3km/h 90% 0.00in /  0mm 19 W/m2
11:00 31.1 °F /  -0.5 °C 27.4 °F /  -2.6 °C 29.71in /  1006hPa NW 4mph /  6.4km/h 15mph /  24.1km/h 86% 0.00in /  0mm 25 W/m2
11:30 31.9 °F /  -0.1 °C 27 °F /  -2.8 °C 29.70in /  1005.6hPa NW 6mph /  9.7km/h 21mph /  33.8km/h 82% 0.00in /  0mm 30 W/m2
12:04 32.5 °F /  0.3 °C 26.2 °F /  -3.2 °C 29.69in /  1005.3hPa NW 9.5mph /  15.3km/h 14mph /  22.5km/h 77.4% 0.00in /  0mm 21 W/m2
12:09 32.4 °F /  0.2 °C 26.1 °F /  -3.3 °C 29.69in /  1005.3hPa WNW 10.8mph /  17.4km/h 18mph /  29km/h 77.3% 0.00in /  0mm 25 W/m2
12:14 32.3 °F /  0.2 °C 25.9 °F /  -3.4 °C 29.70in /  1005.6hPa NW 8.4mph /  13.5km/h 18mph /  29km/h 77% 0.00in /  0mm 30 W/m2
12:19 32.4 °F /  0.2 °C 26 °F /  -3.3 °C 29.70in /  1005.6hPa NW 9.5mph /  15.3km/h 21mph /  33.8km/h 77% 0.00in /  0mm 35 W/m2
12:24 32.5 °F /  0.3 °C 26.1 °F /  -3.3 °C 29.70in /  1005.6hPa NW 5.4mph /  8.7km/h 21mph /  33.8km/h 77% 0.00in /  0mm 28 W/m2
12:29 32.7 °F /  0.4 °C 26.2 °F /  -3.2 °C 29.70in /  1005.6hPa NW 7.7mph /  12.4km/h 21mph /  33.8km/h 76.7% 0.00in /  0mm 32 W/m2
12:34 32.8 °F /  0.4 °C 26.2 °F /  -3.2 °C 29.70in /  1005.6hPa WNW 7.7mph /  12.4km/h 21mph /  33.8km/h 76.3% 0.00in /  0mm 32 W/m2
12:39 32.9 °F /  0.5 °C 26.2 °F /  -3.2 °C 29.69in /  1005.3hPa NW 7.8mph /  12.6km/h 18mph /  29km/h 76% 0.00in /  0mm 30 W/m2
12:44 32.9 °F /  0.5 °C 26.2 °F /  -3.2 °C 29.69in /  1005.3hPa NW 6.8mph /  10.9km/h 18mph /  29km/h 76% 0.00in /  0mm 33 W/m2
12:49 33.1 °F /  0.6 °C 26.3 °F /  -3.2 °C 29.70in /  1005.6hPa NW 7.8mph /  12.6km/h 18mph /  29km/h 76% 0.00in /  0mm 32 W/m2
12:54 33.1 °F /  0.6 °C 25.9 °F /  -3.4 °C 29.70in /  1005.6hPa NW 7.8mph /  12.6km/h 19mph /  30.6km/h 74.6% 0.00in /  0mm 39 W/m2
12:59 33.1 °F /  0.6 °C 25.7 °F /  -3.5 °C 29.69in /  1005.3hPa NW 8.6mph /  13.8km/h 19mph /  30.6km/h 73.9% 0.00in /  0mm 35 W/m2
13:04 33.2 °F /  0.7 °C 25.9 °F /  -3.4 °C 29.70in /  1005.6hPa NW 4.9mph /  7.9km/h 19mph /  30.6km/h 74% 0.00in /  0mm 35 W/m2
13:09 33.4 °F /  0.8 °C 26 °F /  -3.3 °C 29.70in /  1005.6hPa WNW 6.6mph /  10.6km/h 14mph /  22.5km/h 74.2% 0.00in /  0mm 26 W/m2
13:14 33.4 °F /  0.8 °C 25.8 °F /  -3.4 °C 29.70in /  1005.6hPa WNW 5.8mph /  9.3km/h 14mph /  22.5km/h 73.5% 0.00in /  0mm 23 W/m2
13:19 33.3 °F /  0.7 °C 25.5 °F /  -3.6 °C 29.71in /  1006hPa WNW 10.5mph /  16.9km/h 18mph /  29km/h 72.8% 0.00in /  0mm 33 W/m2
13:24 33.1 °F /  0.6 °C 25.1 °F /  -3.8 °C 29.71in /  1006hPa NW 10.1mph /  16.3km/h 18mph /  29km/h 72.2% 0.00in /  0mm 33 W/m2
13:29 33 °F /  0.6 °C 25.3 °F /  -3.7 °C 29.71in /  1006hPa NW 9.9mph /  15.9km/h 18mph /  29km/h 73% 0.00in /  0mm 65 W/m2
13:34 33.3 °F /  0.7 °C 25.5 °F /  -3.6 °C 29.71in /  1006hPa WNW 9.4mph /  15.1km/h 19mph /  30.6km/h 72.7% 0.00in /  0mm 65 W/m2
13:39 33.4 °F /  0.8 °C 25.2 °F /  -3.8 °C 29.72in /  1006.3hPa WNW 10.4mph /  16.7km/h 19mph /  30.6km/h 71.5% 0.00in /  0mm 37 W/m2
13:44 33.4 °F /  0.8 °C 25.1 °F /  -3.8 °C 29.72in /  1006.3hPa WNW 8.5mph /  13.7km/h 21mph /  33.8km/h 71.2% 0.01in /  0.25mm 42 W/m2
13:49 33.3 °F /  0.7 °C 24.9 °F /  -3.9 °C 29.72in /  1006.3hPa NW 9.1mph /  14.6km/h 21mph /  33.8km/h 71% 0.01in /  0.25mm 83 W/m2
13:54 33.4 °F /  0.8 °C 24.9 °F /  -3.9 °C 29.73in /  1006.7hPa WNW 10.1mph /  16.3km/h 21mph /  33.8km/h 70.7% 0.01in /  0.25mm 100 W/m2
13:59 33.5 °F /  0.8 °C 24.9 °F /  -3.9 °C 29.73in /  1006.7hPa NW 9.3mph /  15km/h 21mph /  33.8km/h 70.5% 0.01in /  0.25mm 39 W/m2
14:04 33.3 °F /  0.7 °C 24.6 °F /  -4.1 °C 29.74in /  1007hPa WNW 11.2mph /  18km/h 21mph /  33.8km/h 70% 0.01in /  0.25mm 53 W/m2
14:09 33.1 °F /  0.6 °C 24.4 °F /  -4.2 °C 29.74in /  1007hPa NW 9.4mph /  15.1km/h 18mph /  29km/h 70% 0.01in /  0.25mm 37 W/m2
14:14 32.9 °F /  0.5 °C 24.2 °F /  -4.3 °C 29.74in /  1007hPa WNW 8.7mph /  14km/h 19mph /  30.6km/h 70% 0.01in /  0.25mm 11 W/m2
14:19 32.7 °F /  0.4 °C 24.5 °F /  -4.2 °C 29.75in /  1007.3hPa NW 5.2mph /  8.4km/h 19mph /  30.6km/h 71.2% 0.01in /  0.25mm 28 W/m2
14:24 32.7 °F /  0.4 °C 24.7 °F /  -4.1 °C 29.75in /  1007.3hPa WNW 3.8mph /  6.1km/h 19mph /  30.6km/h 72.1% 0.01in /  0.25mm 51 W/m2
14:29 32.8 °F /  0.4 °C 25.1 °F /  -3.8 °C 29.76in /  1007.7hPa WNW 6.9mph /  11.1km/h 20mph /  32.2km/h 72.9% 0.01in /  0.25mm 39 W/m2
14:34 32.8 °F /  0.4 °C 24.6 °F /  -4.1 °C 29.76in /  1007.7hPa WNW 7.3mph /  11.7km/h 20mph /  32.2km/h 71.6% 0.01in /  0.25mm 21 W/m2
14:39 32.7 °F /  0.4 °C 24.3 °F /  -4.3 °C 29.76in /  1007.7hPa NW 9mph /  14.5km/h 19mph /  30.6km/h 71% 0.01in /  0.25mm 21 W/m2
14:44 32.7 °F /  0.4 °C 24.3 °F /  -4.3 °C 29.76in /  1007.7hPa NW 9.5mph /  15.3km/h 19mph /  30.6km/h 70.7% 0.01in /  0.25mm 19 W/m2
14:49 32.7 °F /  0.4 °C 24 °F /  -4.4 °C 29.77in /  1008hPa WNW 7.8mph /  12.6km/h 19mph /  30.6km/h 70% 0.01in /  0.25mm 14 W/m2
14:54 32.6 °F /  0.3 °C 23.9 °F /  -4.5 °C 29.77in /  1008hPa WNW 11.7mph /  18.8km/h 19mph /  30.6km/h 70% 0.01in /  0.25mm 14 W/m2
14:59 32.4 °F /  0.2 °C 23.8 °F /  -4.6 °C 29.78in /  1008.4hPa WNW 8mph /  12.9km/h 19mph /  30.6km/h 70% 0.01in /  0.25mm 16 W/m2
15:04 32.4 °F /  0.2 °C 23.9 °F /  -4.5 °C 29.78in /  1008.4hPa WNW 8.5mph /  13.7km/h 19mph /  30.6km/h 70.5% 0.01in /  0.25mm 16 W/m2
15:09 32.4 °F /  0.2 °C 24.1 °F /  -4.4 °C 29.79in /  1008.7hPa WNW 6.9mph /  11.1km/h 18mph /  29km/h 71% 0.00in /  0mm 16 W/m2
15:14 32.4 °F /  0.2 °C 24.2 °F /  -4.3 °C 29.79in /  1008.7hPa WNW 7.1mph /  11.4km/h 18mph /  29km/h 71.5% 0.00in /  0mm 16 W/m2
15:19 32.4 °F /  0.2 °C 24.4 °F /  -4.2 °C 29.79in /  1008.7hPa WNW 5.3mph /  8.5km/h 18mph /  29km/h 72% 0.00in /  0mm 12 W/m2
15:24 32.3 °F /  0.2 °C 24.1 °F /  -4.4 °C 29.79in /  1008.7hPa NW 6.6mph /  10.6km/h 18mph /  29km/h 71.5% 0.00in /  0mm 7 W/m2
15:29 32.1 °F /  0.1 °C 23.7 °F /  -4.6 °C 29.79in /  1008.7hPa NW 5.9mph /  9.5km/h 18mph /  29km/h 71% 0.00in /  0mm 7 W/m2
15:34 31.9 °F /  -0.1 °C 23.6 °F /  -4.7 °C 29.80in /  1009hPa WNW 7.8mph /  12.6km/h 18mph /  29km/h 70.9% 0.00in /  0mm 5 W/m2
15:39 31.8 °F /  -0.1 °C 23.1 °F /  -4.9 °C 29.80in /  1009hPa NW 9.4mph /  15.1km/h 18mph /  29km/h 70% 0.00in /  0mm 5 W/m2
15:44 31.7 °F /  -0.2 °C 23.1 °F /  -4.9 °C 29.81in /  1009.4hPa NW 7.9mph /  12.7km/h 19mph /  30.6km/h 70% 0.00in /  0mm 5 W/m2
15:49 31.6 °F /  -0.2 °C 23 °F /  -5 °C 29.81in /  1009.4hPa WNW 4.8mph /  7.7km/h 19mph /  30.6km/h 70% 0.00in /  0mm 5 W/m2
15:54 31.5 °F /  -0.3 °C 22.7 °F /  -5.2 °C 29.82in /  1009.7hPa NW 9.4mph /  15.1km/h 20mph /  32.2km/h 69.5% 0.00in /  0mm 0 W/m2
15:59 31.4 °F /  -0.3 °C 22.4 °F /  -5.3 °C 29.82in /  1009.7hPa WNW 6.2mph /  10km/h 20mph /  32.2km/h 69% 0.00in /  0mm 0 W/m2
16:04 31.2 °F /  -0.4 °C 22.2 °F /  -5.4 °C 29.82in /  1009.7hPa NNW 5mph /  8km/h 5mph /  8km/h 69% 0.00in /  0mm 0 W/m2
16:09 31.2 °F /  -0.4 °C 22.2 °F /  -5.4 °C 29.83in /  1010hPa NW 5.1mph /  8.2km/h 14mph /  22.5km/h 69% 0.00in /  0mm 0 W/m2
16:14 31.2 °F /  -0.4 °C 22.2 °F /  -5.4 °C 29.83in /  1010hPa WNW 4.1mph /  6.6km/h 14mph /  22.5km/h 69% 0.00in /  0mm 0 W/m2
16:19 31 °F /  -0.6 °C 22.3 °F /  -5.4 °C 29.83in /  1010hPa WNW 6.2mph /  10km/h 20mph /  32.2km/h 69.7% 0.00in /  0mm 0 W/m2
16:24 30.9 °F /  -0.6 °C 21.9 °F /  -5.6 °C 29.84in /  1010.4hPa WNW 3mph /  4.8km/h 20mph /  32.2km/h 69% 0.00in /  0mm 0 W/m2
16:29 30.8 °F /  -0.7 °C 21.9 °F /  -5.6 °C 29.84in /  1010.4hPa NW 8.2mph /  13.2km/h 22mph /  35.4km/h 69.2% 0.00in /  0mm 0 W/m2
16:34 30.6 °F /  -0.8 °C 21.4 °F /  -5.9 °C 29.85in /  1010.7hPa NW 6.6mph /  10.6km/h 22mph /  35.4km/h 68.1% 0.00in /  0mm 0 W/m2
16:39 30.5 °F /  -0.8 °C 21.2 °F /  -6 °C 29.85in /  1010.7hPa NW 5.2mph /  8.4km/h 14mph /  22.5km/h 68% 0.00in /  0mm 0 W/m2
16:44 30.4 °F /  -0.9 °C 21.1 °F /  -6.1 °C 29.85in /  1010.7hPa NW 5.2mph /  8.4km/h 14mph /  22.5km/h 68% 0.00in /  0mm 0 W/m2
16:49 30.3 °F /  -0.9 °C 21 °F /  -6.1 °C 29.86in /  1011.1hPa WNW 4.2mph /  6.8km/h 14mph /  22.5km/h 68% 0.00in /  0mm 0 W/m2
16:54 30.2 °F /  -1 °C 20.9 °F /  -6.2 °C 29.86in /  1011.1hPa NW 4.3mph /  6.9km/h 14mph /  22.5km/h 68% 0.00in /  0mm 0 W/m2
16:59 30.1 °F /  -1.1 °C 20.8 °F /  -6.2 °C 29.86in /  1011.1hPa WNW 8.1mph /  13km/h 18mph /  29km/h 68% 0.00in /  0mm 0 W/m2
17:04 30 °F /  -1.1 °C 20.7 °F /  -6.3 °C 29.86in /  1011.1hPa WNW 2.3mph /  3.7km/h 18mph /  29km/h 68% 0.00in /  0mm 0 W/m2
17:09 29.9 °F /  -1.2 °C 20.6 °F /  -6.3 °C 29.87in /  1011.4hPa NW 2.2mph /  3.5km/h 11mph /  17.7km/h 68% 0.00in /  0mm 0 W/m2
17:14 29.7 °F /  -1.3 °C 20.5 °F /  -6.4 °C 29.87in /  1011.4hPa WNW 8mph /  12.9km/h 16mph /  25.7km/h 68% 0.00in /  0mm 0 W/m2
17:19 29.7 °F /  -1.3 °C 20.5 °F /  -6.4 °C 29.88in /  1011.7hPa WNW 11.5mph /  18.5km/h 25mph /  40.2km/h 68% 0.00in /  0mm 0 W/m2
17:24 29.8 °F /  -1.2 °C 21.1 °F /  -6.1 °C 29.88in /  1011.7hPa WNW 13mph /  20.9km/h 25mph /  40.2km/h 69.8% 0.00in /  0mm 0 W/m2
17:29 29.7 °F /  -1.3 °C 21.4 °F /  -5.9 °C 29.88in /  1011.7hPa WNW 11.5mph /  18.5km/h 25mph /  40.2km/h 70.8% 0.00in /  0mm 0 W/m2
17:34 29.6 °F /  -1.3 °C 21.3 °F /  -5.9 °C 29.89in /  1012.1hPa WNW 11.5mph /  18.5km/h 25mph /  40.2km/h 71% 0.00in /  0mm 0 W/m2
17:39 29.5 °F /  -1.4 °C 21.3 °F /  -5.9 °C 29.91in /  1012.8hPa WNW 8.8mph /  14.2km/h 22mph /  35.4km/h 71% 0.00in /  0mm 0 W/m2
17:44 29.4 °F /  -1.4 °C 21.2 °F /  -6 °C 29.91in /  1012.8hPa WNW 8.4mph /  13.5km/h 22mph /  35.4km/h 71% 0.00in /  0mm 0 W/m2
17:49 29.5 °F /  -1.4 °C 21.2 °F /  -6 °C 29.91in /  1012.8hPa WNW 7.7mph /  12.4km/h 22mph /  35.4km/h 71% 0.00in /  0mm 0 W/m2
17:54 29.5 °F /  -1.4 °C 21.2 °F /  -6 °C 29.92in /  1013.1hPa WNW 6mph /  9.7km/h 22mph /  35.4km/h 70.8% 0.00in /  0mm 0 W/m2
17:59 29.5 °F /  -1.4 °C 21.2 °F /  -6 °C 29.92in /  1013.1hPa WNW 4.5mph /  7.2km/h 22mph /  35.4km/h 70.7% 0.00in /  0mm 0 W/m2
18:04 29.4 °F /  -1.4 °C 20.8 °F /  -6.2 °C 29.93in /  1013.4hPa WNW 7.2mph /  11.6km/h 22mph /  35.4km/h 70% 0.00in /  0mm 0 W/m2
18:09 29.3 °F /  -1.5 °C 20.7 °F /  -6.3 °C 29.93in /  1013.4hPa NW 1.3mph /  2.1km/h 19mph /  30.6km/h 70% 0.00in /  0mm 0 W/m2
18:14 29.1 °F /  -1.6 °C 20.6 °F /  -6.3 °C 29.94in /  1013.8hPa WNW 4.2mph /  6.8km/h 19mph /  30.6km/h 70% 0.00in /  0mm 0 W/m2
18:19 28.9 °F /  -1.7 °C 20 °F /  -6.7 °C 29.94in /  1013.8hPa NW 5.4mph /  8.7km/h 19mph /  30.6km/h 69% 0.00in /  0mm 0 W/m2
18:24 28.7 °F /  -1.8 °C 19.9 °F /  -6.7 °C 29.95in /  1014.1hPa NNW 2.2mph /  3.5km/h 19mph /  30.6km/h 69% 0.00in /  0mm 0 W/m2
18:25 28.7 °F /  -1.8 °C 19.8 °F /  -6.8 °C 29.95in /  1014.1hPa WNW 2mph /  3.2km/h 19mph /  30.6km/h 69% 0.00in /  0mm 0 W/m2
18:30 28.5 °F /  -1.9 °C 19.6 °F /  -6.9 °C 29.95in /  1014.1hPa NW 4mph /  6.4km/h 19mph /  30.6km/h 69% 0.00in /  0mm 0 W/m2
19:00 27.6 °F /  -2.4 °C 18.1 °F /  -7.7 °C 29.97in /  1014.8hPa NW 4mph /  6.4km/h 15mph /  24.1km/h 67% 0.00in /  0mm 0 W/m2
19:30 27.5 °F /  -2.5 °C 18.7 °F /  -7.4 °C 29.99in /  1015.5hPa NW 4mph /  6.4km/h 18mph /  29km/h 69% 0.00in /  0mm 0 W/m2
20:04 27.1 °F /  -2.7 °C 17.4 °F /  -8.1 °C 30.00in /  1015.8hPa NW 5.3mph /  8.5km/h 18mph /  29km/h 66.3% 0.00in /  0mm 0 W/m2
20:09 27 °F /  -2.8 °C 17.2 °F /  -8.2 °C 30.01in /  1016.1hPa WNW 4.8mph /  7.7km/h 12mph /  19.3km/h 66% 0.00in /  0mm 0 W/m2
20:14 26.9 °F /  -2.8 °C 16.8 °F /  -8.4 °C 30.01in /  1016.1hPa WNW 1.9mph /  3.1km/h 12mph /  19.3km/h 65.1% 0.00in /  0mm 0 W/m2
20:19 26.9 °F /  -2.8 °C 16.5 °F /  -8.6 °C 30.01in /  1016.1hPa NW 7.2mph /  11.6km/h 19mph /  30.6km/h 64.3% 0.00in /  0mm 0 W/m2
20:24 26.7 °F /  -2.9 °C 15.9 °F /  -8.9 °C 30.02in /  1016.5hPa NW 5.4mph /  8.7km/h 19mph /  30.6km/h 63.3% 0.00in /  0mm 0 W/m2
20:29 26.5 °F /  -3.1 °C 15.8 °F /  -9 °C 30.02in /  1016.5hPa NW 8.5mph /  13.7km/h 19mph /  30.6km/h 63.4% 0.00in /  0mm 0 W/m2
20:34 26.3 °F /  -3.2 °C 14.8 °F /  -9.6 °C 30.02in /  1016.5hPa WNW 8.9mph /  14.3km/h 19mph /  30.6km/h 61.1% 0.00in /  0mm 0 W/m2
20:39 26.2 °F /  -3.2 °C 14.6 °F /  -9.7 °C 30.02in /  1016.5hPa WNW 5.8mph /  9.3km/h 16mph /  25.7km/h 61% 0.00in /  0mm 0 W/m2
20:44 26.1 °F /  -3.3 °C 14.5 °F /  -9.7 °C 30.02in /  1016.5hPa WNW 8.4mph /  13.5km/h 18mph /  29km/h 61% 0.00in /  0mm 0 W/m2
20:49 26 °F /  -3.3 °C 14.4 °F /  -9.8 °C 30.03in /  1016.8hPa WNW 11mph /  17.7km/h 23mph /  37km/h 61% 0.00in /  0mm 0 W/m2
20:54 26 °F /  -3.3 °C 15.1 °F /  -9.4 °C 30.03in /  1016.8hPa NW 9.5mph /  15.3km/h 23mph /  37km/h 62.9% 0.00in /  0mm 0 W/m2
20:59 25.8 °F /  -3.4 °C 15.1 °F /  -9.4 °C 30.04in /  1017.2hPa WNW 9.1mph /  14.6km/h 23mph /  37km/h 63.3% 0.00in /  0mm 0 W/m2
21:04 25.7 °F /  -3.5 °C 15.3 °F /  -9.3 °C 30.04in /  1017.2hPa NW 5.2mph /  8.4km/h 23mph /  37km/h 64.1% 0.00in /  0mm 0 W/m2
21:09 25.5 °F /  -3.6 °C 15.1 °F /  -9.4 °C 30.04in /  1017.2hPa NW 7.4mph /  11.9km/h 17mph /  27.4km/h 64.1% 0.00in /  0mm 0 W/m2
21:14 25.3 °F /  -3.7 °C 14.8 °F /  -9.6 °C 30.05in /  1017.5hPa NW 6.8mph /  10.9km/h 19mph /  30.6km/h 64% 0.00in /  0mm 0 W/m2
21:19 25.1 °F /  -3.8 °C 14.7 °F /  -9.6 °C 30.05in /  1017.5hPa NW 6.6mph /  10.6km/h 19mph /  30.6km/h 64.2% 0.00in /  0mm 0 W/m2
21:24 24.9 °F /  -3.9 °C 14.5 °F /  -9.7 °C 30.05in /  1017.5hPa NW 6.1mph /  9.8km/h 19mph /  30.6km/h 64% 0.00in /  0mm 0 W/m2
21:29 24.8 °F /  -4 °C 14.2 °F /  -9.9 °C 30.05in /  1017.5hPa NW 6.4mph /  10.3km/h 19mph /  30.6km/h 63.5% 0.00in /  0mm 0 W/m2
21:34 24.7 °F /  -4.1 °C 13.9 °F /  -10.1 °C 30.05in /  1017.5hPa WNW 3.8mph /  6.1km/h 19mph /  30.6km/h 63% 0.00in /  0mm 0 W/m2
21:39 24.6 °F /  -4.1 °C 13.8 °F /  -10.1 °C 30.06in /  1017.8hPa WNW 2.1mph /  3.4km/h 11mph /  17.7km/h 63% 0.00in /  0mm 0 W/m2
21:44 24.4 °F /  -4.2 °C 13.9 °F /  -10.1 °C 30.06in /  1017.8hPa NW 3.5mph /  5.6km/h 11mph /  17.7km/h 63.8% 0.00in /  0mm 0 W/m2
21:49 24.3 °F /  -4.3 °C 13.9 °F /  -10.1 °C 30.06in /  1017.8hPa WNW 4.4mph /  7.1km/h 11mph /  17.7km/h 63.8% 0.00in /  0mm 0 W/m2
21:54 24.3 °F /  -4.3 °C 13.9 °F /  -10.1 °C 30.06in /  1017.8hPa WNW 4.8mph /  7.7km/h 13mph /  20.9km/h 64% 0.00in /  0mm 0 W/m2
21:59 24.2 °F /  -4.3 °C 13.8 °F /  -10.1 °C 30.07in /  1018.2hPa WNW 8.1mph /  13km/h 20mph /  32.2km/h 64% 0.00in /  0mm 0 W/m2
22:04 24.3 °F /  -4.3 °C 13.7 °F /  -10.2 °C 30.07in /  1018.2hPa West 7.3mph /  11.7km/h 20mph /  32.2km/h 63.4% 0.00in /  0mm 0 W/m2
22:09 24.4 °F /  -4.2 °C 13.6 °F /  -10.2 °C 30.08in /  1018.5hPa WNW 5.1mph /  8.2km/h 18mph /  29km/h 63% 0.00in /  0mm 0 W/m2
22:14 24.4 °F /  -4.2 °C 13.8 °F /  -10.1 °C 30.07in /  1018.2hPa WNW 6.1mph /  9.8km/h 18mph /  29km/h 63.3% 0.00in /  0mm 0 W/m2
22:19 24.4 °F /  -4.2 °C 13.4 °F /  -10.3 °C 30.08in /  1018.5hPa NW 9.4mph /  15.1km/h 18mph /  29km/h 62.4% 0.00in /  0mm 0 W/m2
22:24 24.4 °F /  -4.2 °C 13.3 °F /  -10.4 °C 30.08in /  1018.5hPa WNW 7.2mph /  11.6km/h 18mph /  29km/h 62.3% 0.00in /  0mm 0 W/m2
22:29 24.3 °F /  -4.3 °C 13.4 °F /  -10.3 °C 30.08in /  1018.5hPa WNW 5.8mph /  9.3km/h 18mph /  29km/h 62.6% 0.00in /  0mm 0 W/m2
22:34 24.2 °F /  -4.3 °C 13.1 °F /  -10.5 °C 30.08in /  1018.5hPa WNW 8.9mph /  14.3km/h 18mph /  29km/h 62% 0.00in /  0mm 0 W/m2
22:39 24.2 °F /  -4.3 °C 13.1 °F /  -10.5 °C 30.08in /  1018.5hPa WNW 4.6mph /  7.4km/h 16mph /  25.7km/h 62% 0.00in /  0mm 0 W/m2
22:44 24.1 °F /  -4.4 °C 13.2 °F /  -10.4 °C 30.08in /  1018.5hPa WNW 5.6mph /  9km/h 16mph /  25.7km/h 62.9% 0.00in /  0mm 0 W/m2
22:49 23.9 °F /  -4.5 °C 13.1 °F /  -10.5 °C 30.08in /  1018.5hPa WNW 8.1mph /  13km/h 18mph /  29km/h 63% 0.00in /  0mm 0 W/m2
22:54 23.8 °F /  -4.6 °C 13 °F /  -10.6 °C 30.08in /  1018.5hPa WNW 4.1mph /  6.6km/h 18mph /  29km/h 63% 0.00in /  0mm 0 W/m2
22:59 23.6 °F /  -4.7 °C 12.9 °F /  -10.6 °C 30.09in /  1018.8hPa WNW 6.4mph /  10.3km/h 18mph /  29km/h 63% 0.00in /  0mm 0 W/m2
23:04 23.5 °F /  -4.7 °C 12.8 °F /  -10.7 °C 30.09in /  1018.8hPa WNW 5mph /  8km/h 5mph /  8km/h 63% 0.00in /  0mm 0 W/m2
23:09 23.5 °F /  -4.7 °C 13 °F /  -10.6 °C 30.09in /  1018.8hPa WNW 6.6mph /  10.6km/h 17mph /  27.4km/h 63.7% 0.00in /  0mm 0 W/m2
23:14 23.5 °F /  -4.7 °C 13.1 °F /  -10.5 °C 30.09in /  1018.8hPa WNW 5.6mph /  9km/h 19mph /  30.6km/h 63.8% 0.00in /  0mm 0 W/m2
23:19 23.5 °F /  -4.7 °C 13.1 °F /  -10.5 °C 30.09in /  1018.8hPa WNW 1.4mph /  2.3km/h 19mph /  30.6km/h 63.8% 0.00in /  0mm 0 W/m2
23:24 23.4 °F /  -4.8 °C 13 °F /  -10.6 °C 30.09in /  1018.8hPa WNW 1.7mph /  2.7km/h 19mph /  30.6km/h 64% 0.00in /  0mm 0 W/m2
23:29 23.3 °F /  -4.8 °C 12.9 °F /  -10.6 °C 30.09in /  1018.8hPa WNW 1.5mph /  2.4km/h 19mph /  30.6km/h 64% 0.00in /  0mm 0 W/m2
23:34 23.1 °F /  -4.9 °C 12.8 °F /  -10.7 °C 30.09in /  1018.8hPa WNW 2.7mph /  4.3km/h 19mph /  30.6km/h 64% 0.00in /  0mm 0 W/m2
23:39 23.1 °F /  -4.9 °C 12.9 °F /  -10.6 °C 30.10in /  1019.2hPa WNW 2.2mph /  3.5km/h 9mph /  14.5km/h 64.5% 0.00in /  0mm 0 W/m2
23:44 23 °F /  -5 °C 13 °F /  -10.6 °C 30.10in /  1019.2hPa WNW 3.3mph /  5.3km/h 12mph /  19.3km/h 65% 0.00in /  0mm 0 W/m2
23:49 22.9 °F /  -5.1 °C 13 °F /  -10.6 °C 30.10in /  1019.2hPa WNW 4.3mph /  6.9km/h 15mph /  24.1km/h 65.3% 0.00in /  0mm 0 W/m2
23:54 22.9 °F /  -5.1 °C 13.3 °F /  -10.4 °C 30.10in /  1019.2hPa WNW 4.4mph /  7.1km/h 15mph /  24.1km/h 66% 0.00in /  0mm 0 W/m2
23:59 22.9 °F /  -5.1 °C 13.3 °F /  -10.4 °C 30.11in /  1019.5hPa WNW 0.4mph /  0.6km/h 15mph /  24.1km/h 66% 0.00in /  0mm 0 W/m2
Hartford County Weather
Compliments of Weather Underground - 4 mb